Time;durP1;ratioP1;P1;durP2;ratioP2;P2;SDS_P1;SDS_P2;PMS_P1;PMS_P2;Temp;Humidity;BMP_temperature;BMP_pressure;BME280_temperature;BME280_humidity;BME280_pressure;Samples;Min_cycle;Max_cycle;Signal;HPM_P1;HPM_P2
2021/05/05 00:01:18;;;;;;;7.20;2.20;;;7.10;89.40;;;;;;5054640;28;20079;-86
2021/05/05 00:03:43;;;;;;;13.95;2.45;;;7.10;89.50;;;;;;5056029;28;20452;-85
2021/05/05 00:06:12;;;;;;;11.10;2.88;;;7.10;89.40;;;;;;5053121;28;20462;-86
2021/05/05 00:08:38;;;;;;;9.57;2.05;;;7.10;88.80;;;;;;5054261;28;20052;-86
2021/05/05 00:11:04;;;;;;;7.88;2.25;;;7.10;88.70;;;;;;5054717;28;20028;-85
2021/05/05 00:13:29;;;;;;;7.82;2.35;;;7.20;88.30;;;;;;5056797;28;20032;-85
2021/05/05 00:15:55;;;;;;;8.68;1.88;;;7.20;88.20;;;;;;5058842;28;20048;-84
2021/05/05 00:18:21;;;;;;;11.93;3.10;;;7.20;87.80;;;;;;5070823;28;20509;-83
2021/05/05 00:20:47;;;;;;;10.05;2.50;;;7.20;88.30;;;;;;5061273;28;20036;-85
2021/05/05 00:23:13;;;;;;;9.50;2.25;;;7.20;87.80;;;;;;5056929;28;20028;-85
2021/05/05 00:25:38;;;;;;;5.82;1.92;;;7.20;87.90;;;;;;5065564;28;20028;-86
2021/05/05 00:28:04;;;;;;;10.38;2.25;;;7.20;87.60;;;;;;5068717;28;20044;-84
2021/05/05 00:30:31;;;;;;;7.85;1.88;;;7.20;87.50;;;;;;5075234;28;20441;-86
2021/05/05 00:32:57;;;;;;;10.40;2.00;;;7.20;87.40;;;;;;5076817;28;20119;-86
2021/05/05 00:35:22;;;;;;;15.25;2.35;;;7.20;87.80;;;;;;5076974;28;20096;-85
2021/05/05 00:37:48;;;;;;;9.43;2.60;;;7.20;87.60;;;;;;5078839;28;20029;-84
2021/05/05 00:40:15;;;;;;;12.65;3.75;;;7.20;87.80;;;;;;5080466;28;20551;-83
2021/05/05 00:42:41;;;;;;;11.60;2.60;;;7.20;87.70;;;;;;5097542;28;20085;-84
2021/05/05 00:45:13;;;;;;;11.98;3.03;;;7.20;87.70;;;;;;5094615;28;20031;-84
2021/05/05 00:47:39;;;;;;;9.63;2.45;;;7.20;87.70;;;;;;5098002;28;20025;-84
2021/05/05 00:50:08;;;;;;;14.48;4.13;;;7.20;87.90;;;;;;5088168;28;20112;-85
2021/05/05 00:52:34;;;;;;;8.07;2.45;;;7.20;87.70;;;;;;5078656;28;20106;-84
2021/05/05 00:55:00;;;;;;;13.02;3.40;;;7.20;87.70;;;;;;5082115;28;20488;-84
2021/05/05 00:57:28;;;;;;;15.95;3.50;;;7.10;87.90;;;;;;5091133;28;20048;-84
2021/05/05 00:59:54;;;;;;;10.73;3.15;;;7.10;87.70;;;;;;5089278;28;20466;-85
2021/05/05 01:02:20;;;;;;;12.68;3.15;;;7.10;87.80;;;;;;5094406;28;20029;-84
2021/05/05 01:04:46;;;;;;;9.20;2.80;;;7.10;88.10;;;;;;5078675;28;20032;-84
2021/05/05 01:07:12;;;;;;;12.27;3.13;;;7.10;87.90;;;;;;5077831;28;20020;-80
2021/05/05 01:09:43;;;;;;;12.63;4.32;;;7.10;87.90;;;;;;5078567;28;20025;-83
2021/05/05 01:12:09;;;;;;;10.05;3.22;;;7.10;87.30;;;;;;5078789;28;20078;-83
2021/05/05 01:14:39;;;;;;;8.38;2.88;;;7.10;87.20;;;;;;5079798;28;20440;-83
2021/05/05 01:17:08;;;;;;;10.63;3.38;;;7.10;87.30;;;;;;5082231;28;20100;-85
2021/05/05 01:19:34;;;;;;;16.52;3.72;;;7.10;87.90;;;;;;5083349;28;20029;-83
2021/05/05 01:22:00;;;;;;;16.13;3.50;;;7.10;87.40;;;;;;5086202;28;20020;-83
2021/05/05 01:24:28;;;;;;;10.57;3.80;;;7.10;86.50;;;;;;5096552;28;20089;-85
2021/05/05 01:26:54;;;;;;;8.20;3.20;;;7.10;87.10;;;;;;5097598;28;20049;-85
2021/05/05 01:29:19;;;;;;;14.75;4.00;;;7.10;87.10;;;;;;5134558;28;20083;-85
2021/05/05 01:31:47;;;;;;;13.18;3.75;;;7.10;87.10;;;;;;5134573;28;20012;-84
2021/05/05 01:34:12;;;;;;;7.82;3.00;;;7.10;88.40;;;;;;5134580;28;20024;-86
2021/05/05 01:36:39;;;;;;;14.23;3.20;;;7.10;87.90;;;;;;5122919;28;20008;-83
2021/05/05 01:39:12;;;;;;;9.88;2.63;;;7.10;87.80;;;;;;5111659;28;20533;-81
2021/05/05 01:41:38;;;;;;;9.38;2.28;;;7.10;88.70;;;;;;5107474;28;20000;-80
2021/05/05 01:44:10;;;;;;;6.50;2.00;;;7.00;88.60;;;;;;5123980;28;20024;-83
2021/05/05 01:46:53;;;;;;;11.17;3.03;;;6.90;89.10;;;;;;5102165;28;20036;-85
2021/05/05 01:49:21;;;;;;;14.00;4.22;;;6.80;90.00;;;;;;5096361;28;20327;-84
2021/05/05 01:51:49;;;;;;;12.35;2.88;;;6.70;90.10;;;;;;5096504;28;20089;-84
2021/05/05 01:54:14;;;;;;;9.00;2.80;;;6.70;90.30;;;;;;5094638;28;20068;-81
2021/05/05 01:56:41;;;;;;;11.25;3.05;;;6.70;90.30;;;;;;5111632;28;20020;-81
2021/05/05 01:59:06;;;;;;;10.05;2.67;;;6.70;90.50;;;;;;5111801;28;20024;-83
2021/05/05 02:01:32;;;;;;;11.07;2.40;;;6.70;90.00;;;;;;5111977;28;20024;-82
2021/05/05 02:04:01;;;;;;;13.43;2.65;;;6.60;90.40;;;;;;5094419;28;20533;-83
2021/05/05 02:06:28;;;;;;;11.93;3.75;;;6.60;90.50;;;;;;5111366;28;20070;-83
2021/05/05 02:08:54;;;;;;;14.93;3.03;;;6.50;90.50;;;;;;5094614;28;20030;-82
2021/05/05 02:11:19;;;;;;;13.63;2.95;;;6.50;90.20;;;;;;5111993;28;20032;-82
2021/05/05 02:13:45;;;;;;;8.70;2.80;;;6.40;90.60;;;;;;5122733;28;20015;-82
2021/05/05 02:16:11;;;;;;;12.88;3.30;;;6.40;90.80;;;;;;5118592;28;20087;-83
2021/05/05 02:18:36;;;;;;;12.60;2.83;;;6.40;91.00;;;;;;5114302;28;20020;-82
2021/05/05 02:21:02;;;;;;;10.57;3.10;;;6.40;91.00;;;;;;5114933;28;20024;-82
2021/05/05 02:23:28;;;;;;;16.80;3.03;;;6.30;91.00;;;;;;5111957;28;20020;-82
2021/05/05 02:25:53;;;;;;;10.70;2.75;;;6.30;91.20;;;;;;5112287;28;20031;-83
2021/05/05 02:28:19;;;;;;;8.30;2.15;;;6.30;91.30;;;;;;5097131;28;20037;-83
2021/05/05 02:30:45;;;;;;;12.32;2.72;;;6.20;91.50;;;;;;5074986;28;20161;-82
2021/05/05 02:33:11;;;;;;;16.02;2.67;;;6.30;91.20;;;;;;5074631;28;20141;-83
2021/05/05 02:35:36;;;;;;;14.73;3.50;;;6.30;91.40;;;;;;5078842;28;20016;-83
2021/05/05 02:38:02;;;;;;;15.23;2.97;;;6.20;91.40;;;;;;5096271;28;20065;-82
2021/05/05 02:40:28;;;;;;;11.65;3.25;;;6.20;91.40;;;;;;5093884;28;20028;-83
2021/05/05 02:42:55;;;;;;;16.70;3.15;;;6.20;91.30;;;;;;5096332;28;20092;-82
2021/05/05 02:45:20;;;;;;;19.15;3.28;;;6.20;91.50;;;;;;5089454;28;20071;-82
2021/05/05 02:47:46;;;;;;;19.63;5.00;;;6.10;91.70;;;;;;5077554;28;20112;-81
2021/05/05 02:50:12;;;;;;;14.98;4.30;;;6.20;91.90;;;;;;5087192;28;20013;-82
2021/05/05 02:52:37;;;;;;;13.32;3.55;;;6.20;91.90;;;;;;5090172;28;20029;-82
2021/05/05 02:55:04;;;;;;;15.50;4.63;;;6.30;92.00;;;;;;5079269;28;20025;-82
2021/05/05 02:57:29;;;;;;;14.32;4.20;;;6.20;92.00;;;;;;5074064;28;20017;-82
2021/05/05 02:59:55;;;;;;;11.13;3.33;;;6.30;92.00;;;;;;5073211;28;20023;-82
2021/05/05 03:02:21;;;;;;;10.75;3.53;;;6.20;91.90;;;;;;5074046;28;20031;-83
2021/05/05 03:04:46;;;;;;;13.95;3.30;;;6.20;92.10;;;;;;5072990;28;20035;-82
2021/05/05 03:07:12;;;;;;;21.90;4.55;;;6.20;92.00;;;;;;5073466;28;20025;-83
2021/05/05 03:09:37;;;;;;;17.55;4.60;;;6.30;92.20;;;;;;5073826;28;20025;-82
2021/05/05 03:12:04;;;;;;;13.90;3.60;;;6.20;92.20;;;;;;5073029;28;20025;-83
2021/05/05 03:14:30;;;;;;;12.02;3.60;;;6.30;92.10;;;;;;5073141;28;20469;-82
2021/05/05 03:16:57;;;;;;;16.58;5.05;;;6.30;92.10;;;;;;5073890;28;20082;-81
2021/05/05 03:19:23;;;;;;;15.30;4.40;;;6.30;92.10;;;;;;5075060;28;20021;-81
2021/05/05 03:21:49;;;;;;;17.50;3.92;;;6.30;92.10;;;;;;5073898;28;20058;-81
2021/05/05 03:24:15;;;;;;;19.15;4.88;;;6.30;92.10;;;;;;5074274;28;20031;-82
2021/05/05 03:26:41;;;;;;;11.82;3.22;;;6.30;92.30;;;;;;5077316;28;20213;-82
2021/05/05 03:29:08;;;;;;;14.57;4.15;;;6.30;92.70;;;;;;5075374;28;20029;-81
2021/05/05 03:31:34;;;;;;;14.30;3.58;;;6.30;92.40;;;;;;5074601;28;20023;-81
2021/05/05 03:34:01;;;;;;;14.07;4.10;;;6.30;92.40;;;;;;5075364;28;20426;-81
2021/05/05 03:36:26;;;;;;;15.43;5.55;;;6.40;92.50;;;;;;5074063;28;20050;-82
2021/05/05 03:38:52;;;;;;;21.08;5.85;;;6.40;92.30;;;;;;5073186;28;20440;-82
2021/05/05 03:41:18;;;;;;;15.95;5.25;;;6.30;92.30;;;;;;5074110;28;20060;-82
2021/05/05 03:43:43;;;;;;;17.88;6.75;;;6.30;92.30;;;;;;5072172;28;20036;-81
2021/05/05 03:46:09;;;;;;;15.20;5.55;;;6.30;92.30;;;;;;5074348;28;20541;-82
2021/05/05 03:48:35;;;;;;;15.15;5.70;;;6.20;92.40;;;;;;5076765;28;20270;-82
2021/05/05 03:51:03;;;;;;;17.88;6.55;;;6.20;92.20;;;;;;5076499;28;20461;-83
2021/05/05 03:53:29;;;;;;;19.45;7.25;;;6.20;92.20;;;;;;5075365;28;20043;-81
2021/05/05 03:55:55;;;;;;;16.77;4.55;;;6.20;92.30;;;;;;5075380;28;20062;-82
2021/05/05 03:58:21;;;;;;;15.38;6.75;;;6.20;91.90;;;;;;5075535;28;20097;-82
2021/05/05 04:00:46;;;;;;;23.40;7.47;;;6.20;92.20;;;;;;5075372;28;20025;-81
2021/05/05 04:03:12;;;;;;;17.98;6.65;;;6.20;92.30;;;;;;5085728;28;20076;-80
2021/05/05 04:05:38;;;;;;;20.33;6.35;;;6.20;92.30;;;;;;5082454;28;20021;-80
2021/05/05 04:08:04;;;;;;;15.77;5.40;;;6.10;92.00;;;;;;5075560;28;20024;-80
2021/05/05 04:10:30;;;;;;;13.85;6.53;;;6.10;92.30;;;;;;5075528;28;20024;-82
2021/05/05 04:12:55;;;;;;;16.40;5.93;;;6.10;92.30;;;;;;5075978;28;20027;-82
2021/05/05 04:15:21;;;;;;;14.63;5.20;;;6.10;92.40;;;;;;5075525;28;20135;-81
2021/05/05 04:17:47;;;;;;;16.30;4.82;;;6.10;92.40;;;;;;5076490;28;20382;-82
2021/05/05 04:20:15;;;;;;;24.65;6.18;;;6.20;92.30;;;;;;5078550;28;20381;-82
2021/05/05 04:22:41;;;;;;;18.85;5.60;;;6.20;92.30;;;;;;5082522;28;20028;-82
2021/05/05 04:25:07;;;;;;;17.00;5.07;;;6.20;92.10;;;;;;5086053;28;20036;-82
2021/05/05 04:27:33;;;;;;;19.25;5.45;;;6.10;92.00;;;;;;5081793;28;20047;-82
2021/05/05 04:29:58;;;;;;;17.73;4.13;;;6.20;92.10;;;;;;5059690;28;20103;-82
2021/05/05 04:32:24;;;;;;;16.13;5.13;;;6.10;91.90;;;;;;5071505;28;20051;-80
2021/05/05 04:34:50;;;;;;;16.50;5.30;;;6.10;91.90;;;;;;5075355;28;20136;-80
2021/05/05 04:37:19;;;;;;;19.15;4.45;;;6.10;91.80;;;;;;5077910;28;20009;-80
2021/05/05 04:39:45;;;;;;;13.32;3.63;;;6.10;91.70;;;;;;5078748;28;20106;-81
2021/05/05 04:42:11;;;;;;;18.42;4.85;;;6.20;91.70;;;;;;5060294;28;20025;-81
2021/05/05 04:44:37;;;;;;;12.75;3.38;;;6.20;91.50;;;;;;5061632;28;20047;-81
2021/05/05 04:47:03;;;;;;;17.33;3.92;;;6.20;91.50;;;;;;5069975;28;20081;-81
2021/05/05 04:49:29;;;;;;;18.90;4.15;;;6.20;91.70;;;;;;5049295;28;20110;-81
2021/05/05 04:51:54;;;;;;;15.20;4.50;;;6.20;91.80;;;;;;5056568;28;20060;-81
2021/05/05 04:54:20;;;;;;;14.63;5.15;;;6.30;91.80;;;;;;5055987;28;20029;-80
2021/05/05 04:56:46;;;;;;;18.50;4.80;;;6.20;91.80;;;;;;5055900;28;20036;-81
2021/05/05 04:59:12;;;;;;;13.23;4.63;;;6.20;91.70;;;;;;5056004;28;20112;-80
2021/05/05 05:01:37;;;;;;;16.40;4.25;;;6.20;91.80;;;;;;5055859;28;20036;-81
2021/05/05 05:04:04;;;;;;;13.50;4.38;;;6.30;91.30;;;;;;5056717;28;20033;-81
2021/05/05 05:06:29;;;;;;;15.40;4.63;;;6.30;91.10;;;;;;5055848;28;20454;-80
2021/05/05 05:08:55;;;;;;;11.07;3.55;;;6.20;91.40;;;;;;5055027;28;20111;-81
2021/05/05 05:11:20;;;;;;;12.30;4.60;;;6.30;91.20;;;;;;5055852;28;20116;-81
2021/05/05 05:13:49;;;;;;;11.95;4.50;;;6.20;91.30;;;;;;5055672;28;20033;-82
2021/05/05 05:16:14;;;;;;;12.82;4.63;;;6.30;91.40;;;;;;5065838;28;20038;-79
2021/05/05 05:18:40;;;;;;;11.75;5.57;;;6.20;91.30;;;;;;5060085;28;20079;-80
2021/05/05 05:21:06;;;;;;;14.38;3.70;;;6.30;91.70;;;;;;5057499;28;20484;-80
2021/05/05 05:23:35;;;;;;;12.80;3.75;;;6.20;91.40;;;;;;5056146;28;20045;-81
2021/05/05 05:26:01;;;;;;;16.23;4.45;;;6.20;91.50;;;;;;5055974;28;20271;-81
2021/05/05 05:28:30;;;;;;;10.18;4.57;;;6.20;91.40;;;;;;5086361;28;20626;-81
2021/05/05 05:30:57;;;;;;;15.98;4.25;;;6.30;91.90;;;;;;5095818;28;20051;-82
2021/05/05 05:33:27;;;;;;;10.70;4.32;;;6.30;91.50;;;;;;5097676;28;20028;-81
2021/05/05 05:35:53;;;;;;;12.68;3.90;;;6.30;91.50;;;;;;5095642;28;20035;-80
2021/05/05 05:38:19;;;;;;;12.35;4.55;;;6.40;91.10;;;;;;5095889;28;20031;-82
2021/05/05 05:40:45;;;;;;;11.10;4.03;;;6.30;91.40;;;;;;5113138;28;20028;-79
2021/05/05 05:43:10;;;;;;;13.20;3.97;;;6.30;91.70;;;;;;5112475;28;20036;-82
2021/05/05 05:45:42;;;;;;;13.02;3.58;;;6.30;91.30;;;;;;5112796;28;20031;-81
2021/05/05 05:48:07;;;;;;;21.23;4.97;;;6.40;91.10;;;;;;5096123;28;20028;-81
2021/05/05 05:50:33;;;;;;;13.63;4.05;;;6.40;91.10;;;;;;5113380;28;20024;-81
2021/05/05 05:52:59;;;;;;;9.88;3.53;;;6.60;91.40;;;;;;5115835;28;20024;-81
2021/05/05 05:55:29;;;;;;;9.35;3.10;;;6.60;90.70;;;;;;5113683;28;20035;-81
2021/05/05 05:57:56;;;;;;;11.13;3.22;;;6.60;90.50;;;;;;5113103;28;20027;-82
2021/05/05 06:00:22;;;;;;;12.65;3.17;;;6.70;90.70;;;;;;5094597;28;20086;-81
2021/05/05 06:02:47;;;;;;;8.60;3.60;;;6.80;90.40;;;;;;5111569;28;20469;-82
2021/05/05 06:05:13;;;;;;;11.65;3.00;;;6.80;90.00;;;;;;5111869;28;20036;-82
2021/05/05 06:07:39;;;;;;;10.63;3.00;;;6.90;89.60;;;;;;5113476;28;20027;-82
2021/05/05 06:10:08;;;;;;;8.48;2.97;;;7.00;89.90;;;;;;5094045;28;20528;-81
2021/05/05 06:12:33;;;;;;;14.13;4.07;;;7.10;88.80;;;;;;5094910;28;20456;-82
2021/05/05 06:14:59;;;;;;;7.10;3.17;;;7.20;89.00;;;;;;5112253;28;20119;-82
2021/05/05 06:17:26;;;;;;;12.38;3.03;;;7.20;87.70;;;;;;5097434;28;20386;-83
2021/05/05 06:19:51;;;;;;;9.00;3.13;;;7.10;87.20;;;;;;5096601;28;20063;-83
2021/05/05 06:22:20;;;;;;;8.35;2.90;;;7.00;88.10;;;;;;5113803;28;20397;-82
2021/05/05 06:24:46;;;;;;;12.05;3.72;;;7.00;88.10;;;;;;5118360;28;20035;-82
2021/05/05 06:27:11;;;;;;;11.85;2.85;;;7.00;87.70;;;;;;5109287;28;20055;-81
2021/05/05 06:29:41;;;;;;;11.38;3.05;;;7.00;87.90;;;;;;5133866;28;20016;-82
2021/05/05 06:32:06;;;;;;;12.93;3.00;;;7.10;86.80;;;;;;5128528;28;20024;-82
2021/05/05 06:34:32;;;;;;;12.70;3.25;;;7.30;86.50;;;;;;5132701;28;20018;-82
2021/05/05 06:37:03;;;;;;;11.80;2.20;;;7.40;87.10;;;;;;5125137;28;20053;-83
2021/05/05 06:39:29;;;;;;;13.57;3.33;;;7.50;84.00;;;;;;5105697;28;20016;-83
2021/05/05 06:41:55;;;;;;;15.07;2.95;;;7.70;83.50;;;;;;5115059;28;20008;-84
2021/05/05 06:44:20;;;;;;;7.63;2.25;;;7.70;84.10;;;;;;5100400;28;20080;-83
2021/05/05 06:46:48;;;;;;;14.98;2.88;;;7.80;84.10;;;;;;5113593;28;20091;-84
2021/05/05 06:49:14;;;;;;;9.25;3.33;;;7.80;83.20;;;;;;5113494;28;20028;-85
2021/05/05 06:51:43;;;;;;;14.25;2.90;;;8.00;83.90;;;;;;5112034;28;20469;-83
2021/05/05 06:54:09;;;;;;;6.35;2.45;;;8.00;82.70;;;;;;5114049;28;20493;-84
2021/05/05 06:56:34;;;;;;;8.75;2.42;;;8.00;83.10;;;;;;5112664;28;20027;-83
2021/05/05 06:59:00;;;;;;;14.40;2.72;;;8.00;81.70;;;;;;5112748;28;20466;-85
2021/05/05 07:01:29;;;;;;;7.20;2.10;;;7.90;80.80;;;;;;5097249;28;20025;-84
2021/05/05 07:03:56;;;;;;;7.20;1.63;;;7.90;80.70;;;;;;5122542;28;20032;-84
2021/05/05 07:06:21;;;;;;;11.50;2.60;;;8.00;80.80;;;;;;5121537;28;20048;-85
2021/05/05 07:08:50;;;;;;;14.23;2.45;;;8.30;80.90;;;;;;5121921;28;20025;-86
2021/05/05 07:11:16;;;;;;;10.68;2.63;;;8.40;79.00;;;;;;5118015;28;20046;-84
2021/05/05 07:13:42;;;;;;;14.13;3.13;;;8.40;78.60;;;;;;5112439;28;20127;-85
2021/05/05 07:16:10;;;;;;;12.52;2.38;;;8.50;79.80;;;;;;5112340;28;20013;-84
2021/05/05 07:18:38;;;;;;;12.48;2.63;;;8.50;78.40;;;;;;5114084;28;20400;-86
2021/05/05 07:21:04;;;;;;;9.43;2.50;;;8.50;78.50;;;;;;5117932;28;20107;-86
2021/05/05 07:23:32;;;;;;;8.95;2.20;;;8.40;79.10;;;;;;5110686;28;20059;-87
2021/05/05 07:25:58;;;;;;;11.23;2.53;;;8.40;80.10;;;;;;5121080;28;20026;-85
2021/05/05 07:28:26;;;;;;;10.20;2.38;;;8.40;80.50;;;;;;5120553;28;20080;-85
2021/05/05 07:30:52;;;;;;;10.00;2.25;;;8.60;79.30;;;;;;5115336;28;20092;-87
2021/05/05 07:33:18;;;;;;;8.85;3.08;;;8.60;78.80;;;;;;5115417;28;20126;-86
2021/05/05 07:35:50;;;;;;;7.85;2.30;;;8.80;78.50;;;;;;5100073;28;20041;-86
2021/05/05 07:46:41;;;;;;;13.93;3.00;;;8.90;76.90;;;;;;5099946;28;20058;-86
2021/05/05 07:49:10;;;;;;;17.30;3.08;;;8.90;75.80;;;;;;5099142;28;20024;-87
2021/05/05 07:51:35;;;;;;;14.63;2.90;;;9.10;75.60;;;;;;5116914;28;20008;-87
2021/05/05 07:54:01;;;;;;;15.35;3.63;;;9.20;75.10;;;;;;5116728;28;20162;-87
2021/05/05 07:56:28;;;;;;;10.75;2.90;;;9.20;75.20;;;;;;5117700;28;20412;-85
2021/05/05 07:58:53;;;;;;;12.88;2.13;;;9.30;75.90;;;;;;5124126;28;20024;-85
2021/05/05 08:01:19;;;;;;;15.25;3.53;;;9.40;76.00;;;;;;5130255;28;20031;-86
2021/05/05 08:03:45;;;;;;;8.40;2.13;;;9.40;75.00;;;;;;5125548;28;20031;-87
2021/05/05 08:06:11;;;;;;;8.80;2.75;;;9.30;75.60;;;;;;5112012;28;20603;-83
2021/05/05 08:08:37;;;;;;;8.27;1.85;;;9.20;74.80;;;;;;5113055;28;20080;-82
2021/05/05 08:11:02;;;;;;;9.73;1.73;;;9.10;77.70;;;;;;5116334;28;20016;-84
2021/05/05 08:13:28;;;;;;;10.55;2.28;;;8.90;77.80;;;;;;5134959;28;20107;-85
2021/05/05 08:15:55;;;;;;;7.65;1.60;;;8.80;79.90;;;;;;5117491;28;20039;-85
2021/05/05 08:18:21;;;;;;;7.88;1.85;;;8.60;80.40;;;;;;5102851;28;20042;-81
2021/05/05 08:20:48;;;;;;;11.48;2.17;;;8.50;83.30;;;;;;5116314;28;20066;-81
2021/05/05 08:23:15;;;;;;;9.32;2.33;;;8.40;83.30;;;;;;5112548;28;20028;-81
2021/05/05 08:25:41;;;;;;;13.57;3.10;;;8.40;84.00;;;;;;5119197;28;20020;-81
2021/05/05 08:28:07;;;;;;;7.68;1.98;;;8.40;84.40;;;;;;5117915;28;20040;-82
2021/05/05 08:30:34;;;;;;;14.85;2.33;;;8.50;86.30;;;;;;5133731;28;20031;-80
2021/05/05 08:33:00;;;;;;;10.88;2.33;;;8.90;87.20;;;;;;5108973;28;20107;-82
2021/05/05 08:35:27;;;;;;;14.55;4.88;;;9.20;84.80;;;;;;5099035;28;20486;-81
2021/05/05 08:37:53;;;;;;;9.10;2.88;;;9.30;82.90;;;;;;5096363;28;20016;-82
2021/05/05 08:40:20;;;;;;;9.50;2.88;;;9.40;82.40;;;;;;5114373;28;20076;-82
2021/05/05 08:42:46;;;;;;;14.45;2.67;;;9.30;81.00;;;;;;5097209;28;20020;-81
2021/05/05 08:45:24;;;;;;;9.80;2.08;;;9.20;81.00;;;;;;5114102;28;20343;-83
2021/05/05 08:47:51;;;;;;;9.07;2.05;;;9.10;81.50;;;;;;5098704;28;20465;-83
2021/05/05 08:50:19;;;;;;;10.25;2.47;;;9.20;80.90;;;;;;5102913;28;20020;-82
2021/05/05 08:52:45;;;;;;;6.10;1.67;;;9.30;80.70;;;;;;5100662;28;20043;-81
2021/05/05 08:55:14;;;;;;;7.00;1.70;;;9.50;79.40;;;;;;5104743;28;20028;-82
2021/05/05 08:57:47;;;;;;;10.23;2.60;;;9.60;79.40;;;;;;5104453;28;20028;-82
2021/05/05 09:00:16;;;;;;;12.20;2.00;;;9.70;78.70;;;;;;5100667;28;20031;-82
2021/05/05 09:02:43;;;;;;;10.00;2.88;;;9.90;75.70;;;;;;5099788;28;20012;-82
2021/05/05 09:05:12;;;;;;;14.25;3.33;;;9.90;75.20;;;;;;5115831;28;20035;-83
2021/05/05 09:07:42;;;;;;;14.68;2.10;;;9.90;74.90;;;;;;5097511;28;20027;-83
2021/05/05 09:10:09;;;;;;;7.95;2.08;;;9.90;76.00;;;;;;5095564;28;20020;-83
2021/05/05 09:12:39;;;;;;;8.02;1.77;;;9.80;76.40;;;;;;5095772;28;20035;-83
2021/05/05 09:15:19;;;;;;;;;;;9.50;77.80;;;;;;5097833;28;20044;-82
2021/05/05 09:17:56;;;;;;;7.40;1.80;;;9.20;79.60;;;;;;5098411;28;19903;-81
2021/05/05 09:20:23;;;;;;;9.23;2.15;;;9.10;81.90;;;;;;5098976;28;20092;-81
2021/05/05 09:22:59;;;;;;;9.38;2.40;;;9.40;82.00;;;;;;5096299;28;20032;-83
2021/05/05 09:25:31;;;;;;;10.27;2.60;;;9.70;80.90;;;;;;5099803;28;20491;-80
2021/05/05 09:28:19;;;;;;;14.02;2.67;;;9.90;78.30;;;;;;5096082;28;20040;-80
2021/05/05 09:30:47;;;;;;;14.25;2.88;;;9.90;77.90;;;;;;5098411;28;20028;-80
2021/05/05 09:33:29;;;;;;;13.32;2.70;;;9.80;78.70;;;;;;5095941;28;20020;-81
2021/05/05 09:35:57;;;;;;;8.10;1.73;;;9.70;78.00;;;;;;5095474;28;20109;-81
2021/05/05 09:38:46;;;;;;;11.65;2.92;;;9.40;77.80;;;;;;5096265;28;20032;-80
2021/05/05 09:41:16;;;;;;;9.07;1.93;;;9.20;78.90;;;;;;5097233;28;20086;-82
2021/05/05 09:43:42;;;;;;;8.57;2.35;;;9.20;79.10;;;;;;5095961;28;20327;-82
2021/05/05 09:46:30;;;;;;;9.77;1.85;;;9.40;80.20;;;;;;5114504;28;20020;-81
2021/05/05 09:49:50;;;;;;;8.45;2.03;;;9.90;77.30;;;;;;5101905;28;20048;-81
2021/05/05 09:52:24;;;;;;;13.27;2.83;;;10.20;74.90;;;;;;5024394;28;20037;-82
2021/05/05 09:55:00;;;;;;;12.90;2.65;;;10.40;74.90;;;;;;5082444;28;20442;-81
2021/05/05 09:57:32;;;;;;;13.13;2.65;;;10.50;72.10;;;;;;5079903;28;20032;-83
2021/05/05 10:00:06;;;;;;;12.50;2.47;;;10.70;73.50;;;;;;5096208;28;20020;-83
2021/05/05 10:02:44;;;;;;;9.20;3.10;;;11.10;72.70;;;;;;5095685;28;20119;-84
2021/05/05 10:05:11;;;;;;;10.23;1.60;;;11.20;68.80;;;;;;5095583;28;20020;-84
2021/05/05 10:07:57;;;;;;;11.57;2.17;;;11.10;68.80;;;;;;5113064;28;20088;-86
2021/05/05 10:10:28;;;;;;;8.88;2.13;;;11.00;69.70;;;;;;5095772;28;20031;-83
2021/05/05 10:12:55;;;;;;;12.55;1.90;;;10.80;69.30;;;;;;5095675;28;20034;-83
2021/05/05 10:15:21;;;;;;;7.78;1.88;;;10.50;70.70;;;;;;5095954;28;20031;-82
2021/05/05 10:17:51;;;;;;;10.25;2.13;;;10.50;72.90;;;;;;5101784;28;20406;-82
2021/05/05 10:20:21;;;;;;;9.45;2.45;;;10.60;71.10;;;;;;5132928;28;20013;-82
2021/05/05 10:22:48;;;;;;;9.73;2.10;;;10.80;71.80;;;;;;5116964;28;20008;-83
2021/05/05 10:25:15;;;;;;;12.80;2.20;;;11.00;69.50;;;;;;5115842;28;20020;-81
2021/05/05 10:27:42;;;;;;;11.98;1.98;;;11.10;69.50;;;;;;5114616;28;20036;-82
2021/05/05 10:30:10;;;;;;;8.07;1.23;;;11.10;70.00;;;;;;5098312;28;20020;-82
2021/05/05 10:32:36;;;;;;;12.25;2.28;;;10.90;69.70;;;;;;5094521;28;20024;-84
2021/05/05 10:35:02;;;;;;;8.13;2.17;;;10.60;72.10;;;;;;5094163;28;20032;-84
2021/05/05 10:38:04;;;;;;;10.98;1.92;;;10.50;73.00;;;;;;5112422;28;20113;-84
2021/05/05 10:40:33;;;;;;;11.57;3.25;;;10.80;72.80;;;;;;4998525;28;20227;-84
2021/05/05 10:43:00;;;;;;;11.63;2.17;;;11.10;72.20;;;;;;5082046;28;20035;-83
2021/05/05 10:45:45;;;;;;;9.43;2.50;;;11.40;70.50;;;;;;5096034;28;20096;-84
2021/05/05 10:48:13;;;;;;;15.68;3.47;;;11.60;69.40;;;;;;5094667;28;20465;-85
2021/05/05 10:50:59;;;;;;;13.35;2.58;;;11.80;66.90;;;;;;5098949;28;20105;-84
2021/05/05 10:53:50;;;;;;;11.32;2.33;;;12.10;65.90;;;;;;5105571;28;20001;-84
2021/05/05 10:56:25;;;;;;;8.90;2.40;;;12.30;65.50;;;;;;5097560;28;20024;-85
2021/05/05 10:59:12;;;;;;;12.40;2.45;;;12.50;63.80;;;;;;5096290;28;20031;-85
2021/05/05 11:01:40;;;;;;;12.93;2.17;;;12.40;63.50;;;;;;5095334;28;20104;-88
2021/05/05 11:04:07;;;;;;;12.50;3.08;;;12.10;65.80;;;;;;5095462;28;20077;-86
2021/05/05 11:06:36;;;;;;;10.50;2.20;;;12.20;67.60;;;;;;5095841;28;20052;-84
2021/05/05 11:09:11;;;;;;;15.20;2.92;;;12.50;65.90;;;;;;5095880;28;20422;-87
2021/05/05 11:11:48;;;;;;;9.82;2.20;;;12.60;64.60;;;;;;5099115;28;20585;-85
2021/05/05 11:14:32;;;;;;;11.23;2.95;;;12.80;63.70;;;;;;5095423;28;20028;-87
2021/05/05 11:17:07;;;;;;;12.10;1.98;;;13.00;62.80;;;;;;5102926;28;20033;-85
2021/05/05 11:19:39;;;;;;;14.68;3.08;;;13.00;62.60;;;;;;5115597;28;20012;-87
2021/05/05 11:22:08;;;;;;;12.60;3.00;;;13.10;63.60;;;;;;5106752;28;20047;-86
2021/05/05 11:24:40;;;;;;;13.50;2.47;;;13.20;61.60;;;;;;5096467;28;20028;-87
2021/05/05 11:27:08;;;;;;;13.18;3.33;;;13.10;62.30;;;;;;5097881;28;20047;-88
2021/05/05 11:29:44;;;;;;;12.70;2.95;;;13.40;59.90;;;;;;5097227;28;20044;-87
2021/05/05 11:32:17;;;;;;;11.93;2.35;;;13.70;60.40;;;;;;5094843;28;20054;-87
2021/05/05 11:34:46;;;;;;;10.95;2.22;;;13.50;60.00;;;;;;5095653;28;20024;-86
2021/05/05 11:37:20;;;;;;;6.72;1.70;;;13.30;60.30;;;;;;5093620;28;20059;-89
2021/05/05 11:39:59;;;;;;;13.65;2.30;;;13.20;62.30;;;;;;5094339;28;20024;-87
2021/05/05 11:42:36;;;;;;;12.32;2.55;;;13.20;58.80;;;;;;5095852;28;20052;-87
2021/05/05 11:45:20;;;;;;;11.38;2.60;;;13.10;59.10;;;;;;5112693;28;20457;-88
2021/05/05 11:47:46;;;;;;;9.10;2.10;;;13.30;63.80;;;;;;5122195;28;20024;-86
2021/05/05 11:50:20;;;;;;;11.63;2.22;;;13.40;64.20;;;;;;5116864;28;20023;-87
2021/05/05 11:52:51;;;;;;;15.02;2.88;;;13.50;62.40;;;;;;5095520;28;20024;-89
2021/05/05 11:55:23;;;;;;;11.10;2.40;;;13.30;61.10;;;;;;5111337;28;20039;-87
2021/05/05 11:57:52;;;;;;;10.75;2.00;;;13.20;61.30;;;;;;5104775;28;20471;-90
2021/05/05 12:00:31;;;;;;;10.20;2.58;;;13.00;62.50;;;;;;5099148;28;20442;-89
2021/05/05 12:02:59;;;;;;;13.50;4.30;;;13.30;65.40;;;;;;5098764;28;20070;-88
2021/05/05 12:05:44;;;;;;;13.90;3.17;;;13.50;62.70;;;;;;5096623;28;20043;-88
2021/05/05 12:08:18;;;;;;;12.65;3.35;;;13.40;55.80;;;;;;5098153;28;20039;-88
2021/05/05 12:10:51;;;;;;;15.73;4.00;;;13.10;54.40;;;;;;5100465;28;20031;-88
2021/05/05 12:13:23;;;;;;;11.80;3.22;;;12.80;58.80;;;;;;5102947;28;20085;-87
2021/05/05 12:15:59;;;;;;;14.32;3.30;;;12.50;58.90;;;;;;5117461;28;20008;-88
2021/05/05 12:18:39;;;;;;;9.60;2.05;;;12.30;62.00;;;;;;5119370;28;20020;-88
2021/05/05 12:21:34;;;;;;;13.15;2.90;;;12.50;63.10;;;;;;5119951;28;20083;-87
2021/05/05 12:24:01;;;;;;;14.00;4.15;;;13.00;60.40;;;;;;5094803;28;20028;-87
2021/05/05 12:26:32;;;;;;;11.82;3.13;;;13.20;60.50;;;;;;5110292;28;20040;-87
2021/05/05 12:29:00;;;;;;;15.23;5.20;;;13.70;59.00;;;;;;5107643;28;20062;-87
2021/05/05 12:31:28;;;;;;;14.65;2.92;;;13.80;60.20;;;;;;5116995;28;20092;-89
2021/05/05 12:33:54;;;;;;;21.70;11.55;;;13.60;60.40;;;;;;5109311;28;20039;-87
2021/05/05 12:36:30;;;;;;;15.75;3.40;;;13.50;58.00;;;;;;5101651;28;20024;-89
2021/05/05 12:38:59;;;;;;;15.60;3.45;;;13.60;61.50;;;;;;5100645;28;20154;-87
2021/05/05 12:41:41;;;;;;;11.13;2.35;;;13.80;57.70;;;;;;5101251;28;20508;-89
2021/05/05 12:44:07;;;;;;;14.38;2.97;;;13.80;59.00;;;;;;5101194;28;20024;-88
2021/05/05 12:46:55;;;;;;;10.30;3.17;;;13.70;58.00;;;;;;5116351;28;20504;-88
2021/05/05 12:49:29;;;;;;;14.77;3.65;;;13.30;59.20;;;;;;5100196;28;20561;-89
2021/05/05 12:51:55;;;;;;;10.25;2.83;;;13.00;57.20;;;;;;5100718;28;20062;-89
2021/05/05 12:54:27;;;;;;;9.90;2.25;;;12.90;54.80;;;;;;5099186;28;20115;-88
2021/05/05 12:56:53;;;;;;;10.82;2.67;;;13.00;53.50;;;;;;5100289;28;20162;-89
2021/05/05 12:59:29;;;;;;;10.68;2.20;;;13.20;52.70;;;;;;5100679;28;20028;-88
2021/05/05 13:02:06;;;;;;;13.98;4.57;;;13.40;54.80;;;;;;5100646;28;20024;-88
2021/05/05 13:04:52;;;;;;;10.07;1.98;;;13.60;52.60;;;;;;5104625;28;20052;-89